메인 페이지
METAR-TAF:

METAR-TAF

공항 :

마푸투, 모잠비크

위도: 25-55S, 경도: 032-34E, 고도: 39m

현재 날씨관측

예보는 4 시간 2분 전, 21:00시(UTC)에 발표되었습니다.
남서14kt
온도 25°C
습도 79%
기압 1013 hPa
시정 10km 이상
고도 2000ft 상공 구름 많음

METAR: FQMA 092100Z 22014KT 9999 BKN020 25/21 Q1013 NOSIG

시각: 03:02 (01:02 UTC)

예보

예보는 3 시간 2분 전, 22:00시(UTC)에 발표되었습니다.
예보 대상 시간: 10일 00시부터 11일 06시까지 (UTC)
12kt, 순간 최대 풍속 22kt
시정 10km 이상
고도 2000ft 상공 구름 많음
고도 2500ft 상공 구름 조금, 적란운.
확률 30%
TE시부터 시까지 (UTC)
시정: 4000m
고도 1800ft 상공 구름 많음
고도 2500ft 상공 구름 조금, 적란운.
뇌우, 비
전환 중
10일 06시부터 10일 08시까지 (UTC)
서남서12kt, 순간 최대 풍속 22kt
고도 2500ft 상공 구름 보통
전환 중
10일 12시부터 10일 14시까지 (UTC)
15kt
전환 중
10일 18시부터 10일 20시까지 (UTC)
남서12kt

TAF: FQMA 092200Z 1000/1106 19012G22KT 9999 BKN020 FEW025CB PROB30 TE MPO 1000/1006 4000 TSRA BKN018 FEW025CB BECMG 1006/1008 25012G22KT SCT025 BECMG 1012/1014 17015KT BECMG 1018/1020 23012KT TX26/1013Z TN20/1003Z

4,000개 이상의 공항 관측 자료 및 예보 (METAR 및 TAF 보고).

지도상에서 검색 가능한 기상관측소가 노란 점과 빨간 점으로 표시되어 있습니다.

기상관측소 명을 보려면 표시 위로 마우스를 이동하세요.

날씨 관측과 예보를 보려면 클릭하세요.

지도 변경 : 확대하려면 엑스 표시가 있는 녹색 버튼, 축소하려면 빼기 표시가 있는 녹색 버튼, 다음 페이지의 지도를 보려면 녹색 화살표를 클릭하세요.


METAR-TAF: